Waynesville, North Carolina
Current Conditions -  °F | °C
As of 8:54 PM on Monday 24 Nov 2014 (Local Time) from KAVL Reporting Station
Clear Clear  
Wind Chill: 52°   Ceiling: Unl
Heat Index: 52°   Visibility: 10mi
Dew Point: 47°   Wind: 6mph
Humidity: 83%   Direction: 160°SSE
Pressure: 29.91"   Gusts: NA
Location:  35.48°N, 83.01°W
Report Text: KAVL 250154Z 16005KT 10SM CLR 11/08 A2991 RMK AO2 SLP116 T01110083
Loading
Personal Weather Stations






























Interactive Weather Map New forecast layout! Learn more

10-Day Weather Forecast

Advertisements
Track Severe Weather on mobile